Time;durP1;ratioP1;P1;durP2;ratioP2;P2;SDS_P1;SDS_P2;PMS_P1;PMS_P2;Temp;Humidity;BMP_temperature;BMP_pressure;BME280_temperature;BME280_humidity;BME280_pressure;Samples;Min_cycle;Max_cycle;Signal;HPM_P1;HPM_P2
2023/08/17 01:18:35;;;;;;;3.37;3.07;;;18.00;99.90;;;;;;5195160;23;20554;-89
2023/08/17 01:21:03;;;;;;;3.20;3.00;;;17.90;99.90;;;;;;4996674;28;20471;-89
2023/08/17 01:23:31;;;;;;;5.20;3.20;;;17.90;99.90;;;;;;5006648;28;20421;-90
2023/08/17 01:25:58;;;;;;;7.30;2.93;;;17.80;99.90;;;;;;5005964;28;20446;-90
2023/08/17 01:28:25;;;;;;;3.37;3.13;;;17.90;99.90;;;;;;5000647;28;20467;-89
2023/08/17 01:30:58;;;;;;;2.87;2.77;;;17.80;99.90;;;;;;5003211;28;20506;-89
2023/08/17 01:33:30;;;;;;;6.00;3.40;;;17.80;99.90;;;;;;5009154;28;20455;-89
2023/08/17 01:36:11;;;;;;;3.10;2.80;;;17.80;99.90;;;;;;5002619;28;20474;-89
2023/08/17 01:38:41;;;;;;;4.13;3.10;;;17.80;99.90;;;;;;4993738;28;20538;-90
2023/08/17 01:41:12;;;;;;;3.37;3.07;;;17.80;99.90;;;;;;5002513;28;20497;-89
2023/08/17 01:43:41;;;;;;;3.03;2.73;;;17.80;99.90;;;;;;5008269;28;20454;-90
2023/08/17 01:46:08;;;;;;;7.47;3.93;;;17.80;99.90;;;;;;5012646;28;20458;-90
2023/08/17 01:48:35;;;;;;;4.77;3.27;;;17.80;99.90;;;;;;5012186;28;20474;-90
2023/08/17 01:51:01;;;;;;;8.60;3.20;;;17.80;99.90;;;;;;5006927;28;20459;-90
2023/08/17 01:53:28;;;;;;;4.67;2.90;;;17.70;99.90;;;;;;5007359;28;20856;-90
2023/08/17 01:55:56;;;;;;;3.50;2.80;;;17.70;99.90;;;;;;5002464;28;20458;-90
2023/08/17 01:58:23;;;;;;;4.10;2.70;;;17.60;99.90;;;;;;5000125;28;20461;-90
2023/08/17 02:00:50;;;;;;;3.57;2.80;;;17.60;99.90;;;;;;5012508;28;20450;-90
2023/08/17 02:03:16;;;;;;;5.70;2.97;;;17.60;99.90;;;;;;5012459;28;20867;-90
2023/08/17 02:05:45;;;;;;;7.00;3.53;;;17.60;99.90;;;;;;5012814;28;20496;-89
2023/08/17 02:08:12;;;;;;;5.33;3.30;;;17.50;99.90;;;;;;5012306;28;20445;-90
2023/08/17 02:10:39;;;;;;;7.47;3.57;;;17.50;99.90;;;;;;5003626;28;20454;-90
2023/08/17 02:13:07;;;;;;;4.57;3.50;;;17.50;99.90;;;;;;5009867;28;20446;-90
2023/08/17 02:15:39;;;;;;;3.50;3.07;;;17.50;99.90;;;;;;5011609;28;20456;-90
2023/08/17 02:18:06;;;;;;;7.53;3.37;;;17.50;99.90;;;;;;5011723;28;20479;-90
2023/08/17 02:20:32;;;;;;;4.33;3.10;;;17.50;99.90;;;;;;5004374;28;20473;-90
2023/08/17 02:22:59;;;;;;;5.00;3.10;;;17.50;99.90;;;;;;5010471;28;20443;-90
2023/08/17 02:25:26;;;;;;;3.73;2.80;;;17.40;99.90;;;;;;5004863;28;20520;-90
2023/08/17 02:27:53;;;;;;;8.20;4.07;;;17.60;99.90;;;;;;5011574;28;20902;-90
2023/08/17 02:30:21;;;;;;;5.43;4.40;;;17.40;99.90;;;;;;5011754;28;20497;-89
2023/08/17 02:32:47;;;;;;;8.13;4.20;;;17.40;99.90;;;;;;5011750;28;20922;-90
2023/08/17 02:35:14;;;;;;;11.40;4.70;;;17.30;99.90;;;;;;5011604;28;20814;-89
2023/08/17 02:37:41;;;;;;;7.87;6.40;;;17.30;99.90;;;;;;5011808;28;20466;-90
2023/08/17 02:40:08;;;;;;;8.33;6.07;;;17.30;99.90;;;;;;5001006;28;20531;-89
2023/08/17 02:42:35;;;;;;;8.63;5.90;;;17.20;99.90;;;;;;5010121;28;20454;-90
2023/08/17 02:45:02;;;;;;;7.40;6.70;;;17.10;99.90;;;;;;5011935;28;20489;-89
2023/08/17 02:47:30;;;;;;;8.53;7.13;;;17.00;99.90;;;;;;5012005;28;20823;-90
2023/08/17 02:49:56;;;;;;;12.30;7.00;;;17.00;99.90;;;;;;5009457;28;20433;-89
2023/08/17 02:52:23;;;;;;;8.30;5.87;;;17.00;99.90;;;;;;5011310;28;20869;-90
2023/08/17 02:54:50;;;;;;;7.10;5.60;;;17.00;99.90;;;;;;5008690;28;20459;-90
2023/08/17 02:57:18;;;;;;;7.80;5.57;;;16.90;99.90;;;;;;5003018;28;20906;-90
2023/08/17 02:59:45;;;;;;;6.40;4.83;;;16.90;99.90;;;;;;5000300;28;20578;-90
2023/08/17 03:02:11;;;;;;;6.53;4.83;;;16.80;99.90;;;;;;5008997;28;20480;-89
2023/08/17 03:04:40;;;;;;;6.97;5.10;;;16.90;99.90;;;;;;5006797;28;20438;-90
2023/08/17 03:07:07;;;;;;;8.37;5.17;;;16.90;99.90;;;;;;4993395;28;20450;-90
2023/08/17 03:09:34;;;;;;;14.80;5.17;;;16.80;99.90;;;;;;4992727;28;20959;-90
2023/08/17 03:12:00;;;;;;;7.87;4.83;;;16.80;99.90;;;;;;5001714;28;20867;-89
2023/08/17 03:14:27;;;;;;;6.80;4.67;;;16.70;99.90;;;;;;5009793;28;20469;-90
2023/08/17 03:16:54;;;;;;;7.17;4.93;;;16.80;99.90;;;;;;5011443;28;20456;-89
2023/08/17 03:19:21;;;;;;;8.40;5.37;;;16.80;99.90;;;;;;5007480;28;20528;-90
2023/08/17 03:21:49;;;;;;;48.30;8.03;;;16.80;99.90;;;;;;5007246;28;20461;-90
2023/08/17 03:24:16;;;;;;;32.90;8.47;;;16.80;99.90;;;;;;4995287;28;20426;-90
2023/08/17 03:26:43;;;;;;;17.87;9.70;;;16.60;99.90;;;;;;5007540;28;20470;-89
2023/08/17 03:29:09;;;;;;;21.70;9.40;;;16.70;99.90;;;;;;5005469;28;20429;-90
2023/08/17 03:31:36;;;;;;;59.97;10.20;;;16.60;99.90;;;;;;5012411;28;20425;-90
2023/08/17 03:34:03;;;;;;;18.07;8.77;;;16.60;99.90;;;;;;5011173;28;20496;-90
2023/08/17 03:36:30;;;;;;;33.60;8.80;;;16.60;99.90;;;;;;5023928;28;20431;-90
2023/08/17 03:38:58;;;;;;;33.83;8.50;;;16.50;99.90;;;;;;5033151;28;20464;-90
2023/08/17 03:41:25;;;;;;;82.23;9.97;;;16.50;99.90;;;;;;5012530;28;20495;-90
2023/08/17 03:43:52;;;;;;;62.47;9.73;;;16.50;99.90;;;;;;5013134;28;20421;-90
2023/08/17 03:46:19;;;;;;;24.60;9.67;;;16.50;99.90;;;;;;5015742;28;20525;-90
2023/08/17 03:48:45;;;;;;;51.93;11.27;;;16.50;99.90;;;;;;5017384;28;20695;-90
2023/08/17 03:51:12;;;;;;;136.43;12.93;;;16.60;99.90;;;;;;5016782;28;20460;-91
2023/08/17 03:53:38;;;;;;;76.77;10.70;;;16.60;99.90;;;;;;5016784;28;20954;-90
2023/08/17 03:56:06;;;;;;;35.73;10.20;;;16.60;99.90;;;;;;5009162;28;20488;-90
2023/08/17 03:58:34;;;;;;;19.10;10.80;;;16.70;99.90;;;;;;5016403;28;20512;-91
2023/08/17 04:01:01;;;;;;;30.70;10.50;;;16.70;99.90;;;;;;5014719;28;20428;-90
2023/08/17 04:03:28;;;;;;;21.37;10.57;;;16.80;99.90;;;;;;5008993;28;20413;-91
2023/08/17 04:05:55;;;;;;;23.33;12.10;;;16.80;99.90;;;;;;5014376;28;20513;-90
2023/08/17 04:08:21;;;;;;;14.97;11.07;;;16.80;99.90;;;;;;5015405;28;21007;-91
2023/08/17 04:10:48;;;;;;;26.03;11.83;;;16.80;99.90;;;;;;5014512;28;20513;-91
2023/08/17 04:13:16;;;;;;;21.20;13.27;;;16.90;99.90;;;;;;5015324;28;20770;-91
2023/08/17 04:15:43;;;;;;;20.53;12.07;;;16.90;99.90;;;;;;5005791;28;20501;-91
2023/08/17 04:18:10;;;;;;;21.17;11.97;;;17.00;99.90;;;;;;5006101;28;20448;-90
2023/08/17 04:20:36;;;;;;;21.00;12.97;;;17.10;99.90;;;;;;5000049;28;20462;-90
2023/08/17 04:23:03;;;;;;;21.57;11.97;;;17.10;99.90;;;;;;5005346;28;20451;-91
2023/08/17 04:25:30;;;;;;;20.20;12.23;;;17.10;99.90;;;;;;5010072;28;20446;-91
2023/08/17 04:27:57;;;;;;;17.73;12.53;;;17.10;99.90;;;;;;5007541;28;20850;-91
2023/08/17 04:30:25;;;;;;;15.40;11.87;;;17.10;99.90;;;;;;5006836;28;20430;-91
2023/08/17 04:32:52;;;;;;;26.80;12.77;;;17.10;99.90;;;;;;5011343;28;20476;-91
2023/08/17 04:35:19;;;;;;;25.27;12.50;;;17.10;99.90;;;;;;5015060;28;20470;-91
2023/08/17 04:37:47;;;;;;;24.60;12.83;;;17.10;99.90;;;;;;5010503;28;20449;-91
2023/08/17 04:40:13;;;;;;;18.00;11.97;;;17.20;99.90;;;;;;5006218;28;20536;-90
2023/08/17 04:42:40;;;;;;;17.90;11.50;;;17.20;99.90;;;;;;5001409;28;20971;-91
2023/08/17 04:45:08;;;;;;;19.80;12.73;;;17.30;99.90;;;;;;5006281;28;20420;-91
2023/08/17 04:47:36;;;;;;;15.97;10.93;;;17.30;99.90;;;;;;5008617;28;20538;-91
2023/08/17 04:50:03;;;;;;;15.23;10.70;;;17.30;99.90;;;;;;4999868;28;20931;-91
2023/08/17 04:52:29;;;;;;;10.63;8.43;;;17.40;99.90;;;;;;5013695;28;20457;-91
2023/08/17 04:54:56;;;;;;;14.97;8.70;;;17.50;99.90;;;;;;5014846;28;20457;-91
2023/08/17 04:57:23;;;;;;;11.33;8.03;;;17.50;99.90;;;;;;5014486;28;20442;-90
2023/08/17 04:59:50;;;;;;;13.30;8.17;;;17.60;99.90;;;;;;5014414;28;20482;-91
2023/08/17 05:02:16;;;;;;;10.70;7.03;;;17.60;99.90;;;;;;5012823;28;20468;-91
2023/08/17 05:04:46;;;;;;;13.00;7.87;;;17.60;99.90;;;;;;5009203;28;20452;-91
2023/08/17 05:07:13;;;;;;;8.40;7.50;;;17.60;99.90;;;;;;5014411;28;20486;-92
2023/08/17 05:09:40;;;;;;;10.20;8.13;;;17.70;99.90;;;;;;5004935;28;20510;-90
2023/08/17 05:12:07;;;;;;;14.37;8.83;;;17.70;99.90;;;;;;5012363;28;20452;-91
2023/08/17 05:14:34;;;;;;;13.93;8.60;;;17.80;99.90;;;;;;5013825;28;20966;-92
2023/08/17 05:17:07;;;;;;;13.13;8.93;;;17.80;99.90;;;;;;5015402;28;20478;-92
2023/08/17 05:25:01;;;;;;;17.70;10.20;;;17.90;99.90;;;;;;5016528;28;20432;-92
2023/08/17 05:27:28;;;;;;;12.97;8.53;;;18.00;99.90;;;;;;5016333;28;20470;-91
2023/08/17 05:30:03;;;;;;;14.83;8.90;;;18.00;99.90;;;;;;5008307;28;20475;-91
2023/08/17 05:37:58;;;;;;;11.97;7.40;;;18.20;99.90;;;;;;4955821;28;20535;-91
2023/08/17 05:40:25;;;;;;;13.80;8.80;;;18.20;99.90;;;;;;5008288;28;20490;-91
2023/08/17 05:42:51;;;;;;;11.40;7.53;;;18.20;99.90;;;;;;5006282;28;20430;-91
2023/08/17 05:45:18;;;;;;;13.60;8.73;;;18.20;99.90;;;;;;5015684;28;20462;-91
2023/08/17 05:47:45;;;;;;;12.53;8.00;;;18.20;99.90;;;;;;5009561;28;21006;-92
2023/08/17 05:50:12;;;;;;;12.10;7.60;;;18.20;99.90;;;;;;5006985;28;20461;-90
2023/08/17 05:52:39;;;;;;;11.83;7.97;;;18.30;99.90;;;;;;5007607;28;20473;-91
2023/08/17 05:55:08;;;;;;;11.40;7.37;;;18.30;99.90;;;;;;4999986;28;20447;-91
2023/08/17 05:57:35;;;;;;;9.07;6.70;;;18.30;99.90;;;;;;5011042;28;20550;-92
2023/08/17 06:00:02;;;;;;;8.27;5.90;;;18.30;99.90;;;;;;5006307;28;20482;-90
2023/08/17 06:02:29;;;;;;;7.40;5.77;;;18.40;99.90;;;;;;5012011;28;20545;-92
2023/08/17 06:04:56;;;;;;;8.23;5.30;;;18.60;99.90;;;;;;5011259;28;20460;-92
2023/08/17 06:07:23;;;;;;;6.53;4.50;;;18.50;99.90;;;;;;5007299;28;20452;-93
2023/08/17 06:09:49;;;;;;;5.30;4.80;;;18.40;99.90;;;;;;5010950;28;20825;-91
2023/08/17 06:12:18;;;;;;;3.50;3.23;;;18.50;99.90;;;;;;5004612;28;20455;-91
2023/08/17 06:14:45;;;;;;;3.70;3.40;;;18.50;99.90;;;;;;5010058;28;20453;-91
2023/08/17 06:17:13;;;;;;;4.20;3.80;;;18.50;99.90;;;;;;5010928;28;20458;-92
2023/08/17 06:19:40;;;;;;;6.27;3.77;;;18.60;99.90;;;;;;5014193;28;21085;-91
2023/08/17 06:22:06;;;;;;;3.97;3.40;;;18.70;99.90;;;;;;5014008;28;20450;-91
2023/08/17 06:24:33;;;;;;;7.40;4.07;;;18.80;99.90;;;;;;5014687;28;20509;-89
2023/08/17 06:27:00;;;;;;;4.70;3.27;;;19.20;99.90;;;;;;5017310;28;20513;-90
2023/08/17 06:29:28;;;;;;;5.40;3.70;;;19.10;99.90;;;;;;5017583;28;20916;-91
2023/08/17 06:31:55;;;;;;;6.40;3.83;;;19.20;99.90;;;;;;5017670;28;20454;-90
2023/08/17 06:34:22;;;;;;;4.20;3.80;;;19.30;99.90;;;;;;5018266;28;20455;-91
2023/08/17 06:36:59;;;;;;;5.13;3.93;;;19.40;99.90;;;;;;5017289;28;20486;-91
2023/08/17 06:39:26;;;;;;;3.17;2.97;;;19.60;99.90;;;;;;5018759;28;20480;-92
2023/08/17 06:41:53;;;;;;;3.17;2.97;;;19.70;99.90;;;;;;5036103;28;20470;-92
2023/08/17 06:44:20;;;;;;;3.30;3.00;;;19.80;99.90;;;;;;5034762;28;20464;-91
2023/08/17 06:46:48;;;;;;;8.03;3.60;;;19.80;99.90;;;;;;5020800;28;21070;-91
2023/08/17 06:49:15;;;;;;;5.13;3.53;;;19.80;99.90;;;;;;5017591;28;20454;-90
2023/08/17 06:51:42;;;;;;;3.43;3.13;;;;;;;;;;5013645;28;20491;-90
2023/08/17 06:54:09;;;;;;;5.80;3.80;;;19.70;99.90;;;;;;5013444;28;20461;-90
2023/08/17 06:56:36;;;;;;;3.60;3.20;;;19.60;99.90;;;;;;5017138;28;20520;-90
2023/08/17 06:59:02;;;;;;;5.63;4.23;;;19.60;99.90;;;;;;5023327;28;20446;-91
2023/08/17 07:01:29;;;;;;;3.60;3.27;;;19.50;99.90;;;;;;5016940;28;20470;-91
2023/08/17 07:03:58;;;;;;;4.33;3.57;;;19.60;99.90;;;;;;5017421;28;20462;-92
2023/08/17 07:06:24;;;;;;;4.20;3.80;;;19.50;99.90;;;;;;5019152;28;20481;-90
2023/08/17 07:08:52;;;;;;;3.40;3.10;;;19.50;99.90;;;;;;5021625;28;20442;-93
2023/08/17 07:11:19;;;;;;;5.13;3.20;;;19.50;99.90;;;;;;5027411;28;20475;-91
2023/08/17 07:13:46;;;;;;;4.13;3.50;;;19.50;99.90;;;;;;5022179;28;20508;-92
2023/08/17 07:16:13;;;;;;;7.27;3.40;;;19.50;99.90;;;;;;5021444;28;20462;-93
2023/08/17 07:18:40;;;;;;;3.50;3.20;;;19.60;99.90;;;;;;5023287;28;20466;-91
2023/08/17 07:21:08;;;;;;;4.20;3.17;;;19.70;99.90;;;;;;5028002;28;20505;-92
2023/08/17 07:23:35;;;;;;;3.80;3.30;;;19.80;99.90;;;;;;5031810;28;20438;-93
2023/08/17 07:26:02;;;;;;;5.33;3.70;;;19.90;99.90;;;;;;5031621;28;20446;-91
2023/08/17 07:28:29;;;;;;;8.43;3.57;;;20.00;99.90;;;;;;5033904;28;20474;-93
2023/08/17 07:30:55;;;;;;;8.00;3.00;;;20.30;99.90;;;;;;5035296;28;20522;-96
2023/08/17 07:33:22;;;;;;;5.57;3.03;;;20.60;99.90;;;;;;5031896;28;20534;-90
2023/08/17 07:35:49;;;;;;;3.10;2.70;;;20.90;99.90;;;;;;5017518;28;20454;-90
2023/08/17 07:38:17;;;;;;;3.43;2.70;;;21.20;99.90;;;;;;5016298;28;20478;-90
2023/08/17 07:40:44;;;;;;;3.33;2.70;;;21.40;99.90;;;;;;5013333;28;20489;-90
2023/08/17 07:43:11;;;;;;;3.13;2.83;;;21.70;99.90;;;;;;5017917;28;20458;-91
2023/08/17 07:45:37;;;;;;;4.20;2.90;;;21.80;99.90;;;;;;5017752;28;20450;-90
2023/08/17 07:48:05;;;;;;;3.40;2.83;;;22.30;99.90;;;;;;5009428;28;20474;-90
2023/08/17 07:50:31;;;;;;;2.73;2.50;;;22.60;99.90;;;;;;5013129;28;20795;-90
2023/08/17 07:53:00;;;;;;;3.47;2.40;;;22.90;99.90;;;;;;5024431;28;20446;-92
2023/08/17 07:55:29;;;;;;;2.47;2.30;;;23.00;99.90;;;;;;5024992;28;20527;-91
2023/08/17 07:57:55;;;;;;;3.60;2.53;;;22.90;99.90;;;;;;5023915;28;20477;-91
2023/08/17 08:00:22;;;;;;;3.30;2.87;;;22.90;99.90;;;;;;5025954;28;20474;-91
2023/08/17 08:02:49;;;;;;;3.43;2.53;;;23.20;99.90;;;;;;5022612;28;20465;-91
2023/08/17 08:05:16;;;;;;;2.50;2.30;;;23.20;99.90;;;;;;5020683;28;20874;-92
2023/08/17 08:07:42;;;;;;;3.63;2.57;;;23.40;99.90;;;;;;5022158;28;20489;-93
2023/08/17 08:10:10;;;;;;;4.73;2.57;;;23.50;99.90;;;;;;5019292;28;20541;-91
2023/08/17 08:12:38;;;;;;;2.50;2.30;;;23.50;99.90;;;;;;5024149;28;20447;-93
2023/08/17 08:15:05;;;;;;;3.23;2.73;;;23.20;99.90;;;;;;5021129;28;20866;-92
2023/08/17 08:17:32;;;;;;;2.73;2.53;;;23.10;99.90;;;;;;5018272;28;20471;-93
2023/08/17 08:19:59;;;;;;;3.60;2.40;;;23.00;99.90;;;;;;5022847;28;20462;-93
2023/08/17 08:22:26;;;;;;;2.40;2.20;;;22.80;99.90;;;;;;5024026;28;20454;-94
2023/08/17 08:24:53;;;;;;;3.20;2.77;;;22.70;99.90;;;;;;5023272;28;20485;-94
2023/08/17 08:27:19;;;;;;;3.23;2.90;;;22.50;99.90;;;;;;5019306;28;20474;-93
2023/08/17 08:29:48;;;;;;;4.40;3.80;;;22.40;99.90;;;;;;5020802;28;21163;-91
2023/08/17 08:32:14;;;;;;;6.03;3.70;;;22.30;99.90;;;;;;5019358;28;20454;-92
2023/08/17 08:34:41;;;;;;;4.87;4.37;;;22.20;99.90;;;;;;5021033;28;20466;-93
2023/08/17 08:37:08;;;;;;;7.27;5.20;;;22.10;99.90;;;;;;5018945;28;20478;-92
2023/08/17 08:39:49;;;;;;;4.07;3.67;;;22.10;99.90;;;;;;5020397;28;20485;-91
2023/08/17 08:42:15;;;;;;;8.93;5.10;;;22.10;99.90;;;;;;5018690;28;20450;-92
2023/08/17 08:44:42;;;;;;;8.50;4.60;;;22.20;99.90;;;;;;5018491;28;20526;-92
2023/08/17 08:47:11;;;;;;;8.50;3.70;;;22.30;99.90;;;;;;5022630;28;20470;-91
2023/08/17 08:49:41;;;;;;;4.07;3.77;;;22.30;99.90;;;;;;5022996;28;20462;-92
2023/08/17 08:52:09;;;;;;;3.80;3.50;;;22.50;99.90;;;;;;5022967;28;20478;-91
2023/08/17 08:54:38;;;;;;;4.07;2.80;;;22.50;99.90;;;;;;5018113;28;20454;-89
2023/08/17 08:57:13;;;;;;;6.30;4.63;;;22.50;99.90;;;;;;5022676;28;20470;-91
2023/08/17 08:59:44;;;;;;;7.77;4.53;;;22.60;99.90;;;;;;5026112;28;20458;-91
2023/08/17 09:02:16;;;;;;;7.37;4.00;;;22.50;99.90;;;;;;5025405;28;20489;-91
2023/08/17 09:04:44;;;;;;;5.03;4.53;;;22.70;99.90;;;;;;5025273;28;20522;-90
2023/08/17 09:07:12;;;;;;;6.37;5.30;;;22.70;99.90;;;;;;5015139;28;21013;-91
2023/08/17 09:09:39;;;;;;;10.63;8.33;;;22.90;99.90;;;;;;5017980;28;20980;-89
2023/08/17 09:12:08;;;;;;;9.80;6.10;;;22.90;99.90;;;;;;5012773;28;20446;-89
2023/08/17 09:14:35;;;;;;;9.73;6.20;;;22.90;99.90;;;;;;5007994;28;20438;-89
2023/08/17 09:17:01;;;;;;;7.97;5.37;;;22.90;99.90;;;;;;5009428;28;20481;-91
2023/08/17 09:19:32;;;;;;;8.40;7.07;;;23.20;99.90;;;;;;5010738;28;20465;-88
2023/08/17 09:21:58;;;;;;;10.40;6.70;;;23.70;99.90;;;;;;5006402;28;20532;-88
2023/08/17 09:24:29;;;;;;;9.03;6.47;;;24.30;99.90;;;;;;5008392;28;20458;-88
2023/08/17 09:26:58;;;;;;;8.93;6.87;;;24.90;99.90;;;;;;5013974;28;20458;-88
2023/08/17 09:29:26;;;;;;;9.53;6.23;;;25.40;99.90;;;;;;5013907;28;20994;-88
2023/08/17 09:31:53;;;;;;;8.00;5.93;;;25.80;99.90;;;;;;5007814;28;20450;-88
2023/08/17 09:34:20;;;;;;;6.27;5.50;;;26.00;99.90;;;;;;5012053;28;20454;-89
2023/08/17 09:36:48;;;;;;;5.70;4.60;;;26.30;99.90;;;;;;5009443;28;20477;-88
2023/08/17 09:39:17;;;;;;;7.00;4.60;;;26.40;99.90;;;;;;5009999;28;20455;-88
2023/08/17 09:41:45;;;;;;;7.73;5.23;;;26.30;99.90;;;;;;5013010;28;20486;-90
2023/08/17 09:44:12;;;;;;;5.57;4.87;;;26.50;99.90;;;;;;5017880;28;20427;-91
2023/08/17 09:46:39;;;;;;;4.57;4.20;;;26.50;99.90;;;;;;5037045;28;20448;-91
2023/08/17 09:49:08;;;;;;;4.10;3.80;;;26.50;99.90;;;;;;5021619;28;20855;-89
2023/08/17 09:51:35;;;;;;;8.13;4.60;;;26.70;99.90;;;;;;5009312;28;20521;-87
2023/08/17 09:54:04;;;;;;;4.80;4.30;;;27.00;99.90;;;;;;5012488;28;20454;-89
2023/08/17 09:56:32;;;;;;;5.53;5.00;;;27.20;99.90;;;;;;5011393;28;20538;-90
2023/08/17 09:58:59;;;;;;;6.00;4.93;;;26.70;99.90;;;;;;5007985;28;20458;-90
2023/08/17 10:01:28;;;;;;;4.73;4.33;;;26.50;99.90;;;;;;5009145;28;20490;-89
2023/08/17 10:03:58;;;;;;;5.70;4.40;;;26.50;99.90;;;;;;5009552;28;20706;-89
2023/08/17 10:06:29;;;;;;;4.20;3.80;;;26.80;99.90;;;;;;5009669;28;20461;-90
2023/08/17 10:08:59;;;;;;;4.80;3.90;;;26.90;99.90;;;;;;5010545;28;20485;-89
2023/08/17 10:11:30;;;;;;;4.83;4.30;;;27.00;99.90;;;;;;5013268;28;20959;-88
2023/08/17 10:14:02;;;;;;;4.53;4.13;;;27.10;99.90;;;;;;5011771;28;20458;-87
2023/08/17 10:16:34;;;;;;;6.53;4.53;;;26.90;99.90;;;;;;5003918;28;20467;-89
2023/08/17 10:19:10;;;;;;;4.90;4.50;;;27.20;99.90;;;;;;5004241;28;20431;-88
2023/08/17 10:21:44;;;;;;;6.67;4.70;;;27.20;99.90;;;;;;5012111;28;20505;-89
2023/08/17 10:24:12;;;;;;;4.83;3.80;;;27.20;99.90;;;;;;5005428;28;20454;-88
2023/08/17 10:26:41;;;;;;;3.77;3.47;;;27.30;99.90;;;;;;5011732;28;20457;-89
2023/08/17 10:29:08;;;;;;;4.47;4.07;;;27.20;99.90;;;;;;5002051;28;20513;-86
2023/08/17 10:31:35;;;;;;;4.20;3.80;;;27.10;99.90;;;;;;5009529;28;20451;-86
2023/08/17 10:34:02;;;;;;;4.20;3.90;;;26.90;99.90;;;;;;5010283;28;20442;-86
2023/08/17 10:36:32;;;;;;;4.23;3.93;;;26.70;99.90;;;;;;5011839;28;20451;-86
2023/08/17 10:39:21;;;;;;;5.33;3.87;;;26.40;99.90;;;;;;5010715;28;20505;-86
2023/08/17 10:41:51;;;;;;;3.80;3.50;;;26.20;99.90;;;;;;5012012;28;20898;-87
2023/08/17 10:44:38;;;;;;;4.20;3.80;;;26.50;99.90;;;;;;5011169;28;20450;-87
2023/08/17 10:47:20;;;;;;;5.93;3.63;;;26.60;99.90;;;;;;5004982;28;20478;-86
2023/08/17 10:49:46;;;;;;;3.67;3.43;;;26.90;99.90;;;;;;5004619;28;20446;-86
2023/08/17 10:52:13;;;;;;;3.87;3.57;;;27.30;99.90;;;;;;5007122;28;20442;-87
2023/08/17 10:54:40;;;;;;;4.20;3.80;;;27.40;99.90;;;;;;5014353;28;20472;-87
2023/08/17 10:57:36;;;;;;;4.53;4.13;;;27.40;99.90;;;;;;5014796;28;20474;-86
2023/08/17 11:00:20;;;;;;;4.60;4.20;;;27.40;99.90;;;;;;4981297;28;20471;-87
2023/08/17 11:02:52;;;;;;;4.07;3.50;;;27.10;99.90;;;;;;5011924;28;20443;-86
2023/08/17 11:05:36;;;;;;;4.97;3.63;;;26.90;99.90;;;;;;5011956;28;20880;-86
2023/08/17 11:08:03;;;;;;;5.40;4.17;;;27.00;99.90;;;;;;5011881;28;20913;-87
2023/08/17 11:10:31;;;;;;;5.23;3.60;;;27.20;99.90;;;;;;5013375;28;20536;-88
2023/08/17 11:13:00;;;;;;;3.40;3.20;;;27.20;99.90;;;;;;5012103;28;20449;-87
2023/08/17 11:15:37;;;;;;;3.47;3.27;;;27.20;99.90;;;;;;5009342;28;20573;-87
2023/08/17 11:18:05;;;;;;;4.37;3.60;;;27.10;99.90;;;;;;5012044;28;20477;-85
2023/08/17 11:20:31;;;;;;;4.23;3.27;;;27.00;99.90;;;;;;5010606;28;20454;-88
2023/08/17 11:22:59;;;;;;;5.60;3.37;;;27.20;99.90;;;;;;5011241;28;20486;-89
2023/08/17 11:25:26;;;;;;;3.40;3.10;;;27.20;99.90;;;;;;5009809;28;20509;-87
2023/08/17 11:27:53;;;;;;;3.30;3.10;;;27.40;99.90;;;;;;5010949;28;21001;-87
2023/08/17 11:30:22;;;;;;;4.63;3.50;;;27.70;99.90;;;;;;5011586;28;20532;-88
2023/08/17 11:32:49;;;;;;;3.40;3.10;;;27.70;99.90;;;;;;5012146;28;20511;-88
2023/08/17 11:35:15;;;;;;;3.23;3.00;;;27.60;99.90;;;;;;5011920;28;20454;-89
2023/08/17 11:37:43;;;;;;;3.87;3.47;;;27.40;99.90;;;;;;5011978;28;20474;-87
2023/08/17 11:40:11;;;;;;;4.60;3.80;;;27.50;99.90;;;;;;5010047;28;21034;-86
2023/08/17 11:42:38;;;;;;;9.43;3.17;;;27.60;99.90;;;;;;5011185;28;20497;-88
2023/08/17 11:45:06;;;;;;;3.90;3.47;;;28.00;99.90;;;;;;5010550;28;20474;-88
2023/08/17 11:47:35;;;;;;;3.13;2.77;;;28.10;99.90;;;;;;5009843;28;20488;-88
2023/08/17 11:50:01;;;;;;;4.40;2.60;;;28.40;99.90;;;;;;5011145;28;20885;-86
2023/08/17 11:52:31;;;;;;;2.93;2.73;;;28.70;99.90;;;;;;5009036;28;20451;-86
2023/08/17 11:54:58;;;;;;;3.33;2.70;;;29.10;99.90;;;;;;5010757;28;20465;-86
2023/08/17 11:57:25;;;;;;;3.43;2.80;;;29.30;99.90;;;;;;5010018;28;20466;-86
2023/08/17 11:59:55;;;;;;;5.63;2.93;;;29.50;99.90;;;;;;5009541;28;20513;-87
2023/08/17 12:02:22;;;;;;;3.60;3.30;;;29.40;99.90;;;;;;5011171;28;21330;-84
2023/08/17 12:04:50;;;;;;;3.70;2.80;;;29.40;99.90;;;;;;5014674;28;20469;-85
2023/08/17 12:07:17;;;;;;;12.33;3.37;;;29.40;99.90;;;;;;5011047;28;20483;-87
2023/08/17 12:09:44;;;;;;;3.30;3.10;;;29.50;99.90;;;;;;5010004;28;20875;-86
2023/08/17 12:12:11;;;;;;;3.30;3.10;;;29.40;99.90;;;;;;5009362;28;20454;-87
2023/08/17 12:14:41;;;;;;;3.97;3.37;;;29.40;99.90;;;;;;5010502;28;20458;-88
2023/08/17 12:17:08;;;;;;;4.83;3.17;;;29.40;99.90;;;;;;5010101;28;20470;-87
2023/08/17 12:19:34;;;;;;;4.70;3.30;;;29.50;99.90;;;;;;5010601;28;20462;-87
2023/08/17 12:22:03;;;;;;;3.53;3.20;;;29.40;99.90;;;;;;5012991;28;20485;-85
2023/08/17 12:24:31;;;;;;;3.97;3.10;;;29.40;99.90;;;;;;5012164;28;20463;-87
2023/08/17 12:26:58;;;;;;;3.00;2.70;;;29.40;99.90;;;;;;5007998;28;20482;-87
2023/08/17 12:29:25;;;;;;;2.80;2.60;;;29.70;99.90;;;;;;5009428;28;20911;-88
2023/08/17 12:31:53;;;;;;;3.90;2.70;;;29.60;99.90;;;;;;5008287;28;21012;-87
2023/08/17 12:34:19;;;;;;;2.80;2.60;;;29.70;99.90;;;;;;5011787;28;20443;-89
2023/08/17 12:36:46;;;;;;;2.53;2.33;;;29.70;99.90;;;;;;5008270;28;20475;-86
2023/08/17 12:39:14;;;;;;;3.07;2.50;;;29.60;99.90;;;;;;5010350;28;20501;-87
2023/08/17 12:41:41;;;;;;;4.53;2.83;;;29.80;99.90;;;;;;5008969;28;20483;-87
2023/08/17 12:44:12;;;;;;;4.73;2.60;;;30.00;99.90;;;;;;5006416;28;20944;-86
2023/08/17 12:46:38;;;;;;;2.33;2.23;;;30.20;99.90;;;;;;5012358;28;20477;-89
2023/08/17 12:49:05;;;;;;;3.30;3.00;;;30.30;99.90;;;;;;5036184;28;20439;-89
2023/08/17 12:51:32;;;;;;;3.50;2.83;;;30.60;99.90;;;;;;5027305;28;20963;-87
2023/08/17 12:53:58;;;;;;;3.27;2.37;;;30.70;99.90;;;;;;5009649;28;21085;-86
2023/08/17 12:56:26;;;;;;;2.50;2.27;;;31.00;99.90;;;;;;5009222;28;20456;-86
2023/08/17 12:58:53;;;;;;;3.03;2.80;;;30.80;99.90;;;;;;5009821;28;20956;-87
2023/08/17 13:01:20;;;;;;;2.80;2.60;;;30.60;99.90;;;;;;5008678;28;20509;-85
2023/08/17 13:03:46;;;;;;;2.60;2.40;;;30.60;99.90;;;;;;5009038;28;20723;-87
2023/08/17 13:06:13;;;;;;;5.10;2.20;;;30.70;99.90;;;;;;5008775;28;20509;-87
2023/08/17 13:08:40;;;;;;;3.90;3.20;;;30.90;99.90;;;;;;5008333;28;20482;-88
2023/08/17 13:11:06;;;;;;;6.70;2.43;;;31.10;99.90;;;;;;5008715;28;20444;-89
2023/08/17 13:13:34;;;;;;;2.70;2.50;;;30.80;99.90;;;;;;5009734;28;20501;-90
2023/08/17 13:16:01;;;;;;;3.07;2.53;;;30.90;99.90;;;;;;5007341;28;20450;-87
2023/08/17 13:18:28;;;;;;;3.30;3.00;;;31.10;99.90;;;;;;5008045;28;20505;-88
2023/08/17 13:20:55;;;;;;;7.40;2.93;;;31.00;99.90;;;;;;5007579;28;20979;-88
2023/08/17 13:23:22;;;;;;;5.63;3.00;;;31.20;99.90;;;;;;5007627;28;20494;-89
2023/08/17 13:25:48;;;;;;;2.87;2.67;;;31.40;99.90;;;;;;5008648;28;20454;-87
2023/08/17 13:28:15;;;;;;;3.10;2.80;;;31.60;99.90;;;;;;5008381;28;20478;-88
2023/08/17 13:30:43;;;;;;;3.40;3.10;;;31.30;99.90;;;;;;5009479;28;20463;-87
2023/08/17 13:33:10;;;;;;;2.70;2.50;;;31.00;99.90;;;;;;5007662;28;20453;-87
2023/08/17 13:35:37;;;;;;;3.83;2.63;;;30.90;99.90;;;;;;5010408;28;20912;-90
2023/08/17 13:38:04;;;;;;;3.83;2.67;;;30.40;99.90;;;;;;5006691;28;20465;-88
2023/08/17 13:40:31;;;;;;;3.10;2.90;;;30.10;99.90;;;;;;5007428;28;20470;-87
2023/08/17 13:42:59;;;;;;;3.30;2.83;;;29.90;99.90;;;;;;5008936;28;20496;-88
2023/08/17 13:45:26;;;;;;;2.40;2.30;;;29.90;99.90;;;;;;5008554;28;20466;-88
2023/08/17 13:47:54;;;;;;;5.03;2.33;;;29.90;99.90;;;;;;5009739;28;20478;-88
2023/08/17 13:50:20;;;;;;;2.80;2.60;;;29.60;99.90;;;;;;5009231;28;20443;-87
2023/08/17 13:52:47;;;;;;;2.63;2.43;;;29.60;99.90;;;;;;5008537;28;20513;-88
2023/08/17 13:55:14;;;;;;;2.80;2.60;;;29.70;99.90;;;;;;5005922;28;20922;-88
2023/08/17 13:57:41;;;;;;;2.40;2.20;;;30.00;99.90;;;;;;5008646;28;20902;-88
2023/08/17 14:00:09;;;;;;;3.20;2.60;;;30.10;99.90;;;;;;5008740;28;20967;-88
2023/08/17 14:02:35;;;;;;;3.00;2.37;;;30.30;99.90;;;;;;5008464;28;20470;-88
2023/08/17 14:05:04;;;;;;;4.20;2.50;;;30.40;99.90;;;;;;5007939;28;20462;-89
2023/08/17 14:07:30;;;;;;;3.70;2.80;;;30.30;99.90;;;;;;5009465;28;20478;-89
2023/08/17 14:09:57;;;;;;;2.23;2.10;;;30.20;99.90;;;;;;5009673;28;20528;-87
2023/08/17 14:12:24;;;;;;;3.70;2.70;;;30.20;99.90;;;;;;5008604;28;21333;-86
2023/08/17 14:14:50;;;;;;;2.87;2.67;;;30.00;99.90;;;;;;5010075;28;20510;-86